sensor_id;sensor_type;location;lat;lon;timestamp;pressure;altitude;pressure_sealevel;temperature;humidity
55301;BME280;58302;51.446;-2.000;2023-02-28T00:00:47;102436.19;;;-2.56;100.00
55301;BME280;58302;51.446;-2.000;2023-02-28T00:03:13;102440.34;;;-2.63;100.00
55301;BME280;58302;51.446;-2.000;2023-02-28T00:05:39;102439.22;;;-2.60;100.00
55301;BME280;58302;51.446;-2.000;2023-02-28T00:08:04;102439.69;;;-2.55;100.00
55301;BME280;58302;51.446;-2.000;2023-02-28T00:10:30;102441.88;;;-2.60;100.00
55301;BME280;58302;51.446;-2.000;2023-02-28T00:13:04;102446.81;;;-2.56;100.00
55301;BME280;58302;51.446;-2.000;2023-02-28T00:15:30;102462.19;;;-2.59;100.00
55301;BME280;58302;51.446;-2.000;2023-02-28T00:17:56;102458.97;;;-2.63;100.00
55301;BME280;58302;51.446;-2.000;2023-02-28T00:20:23;102452.59;;;-2.72;100.00
55301;BME280;58302;51.446;-2.000;2023-02-28T00:22:49;102462.31;;;-2.82;100.00
55301;BME280;58302;51.446;-2.000;2023-02-28T00:25:17;102467.44;;;-2.90;100.00
55301;BME280;58302;51.446;-2.000;2023-02-28T00:27:43;102469.78;;;-2.97;100.00
55301;BME280;58302;51.446;-2.000;2023-02-28T00:30:11;102467.34;;;-3.00;100.00
55301;BME280;58302;51.446;-2.000;2023-02-28T00:32:37;102468.34;;;-3.01;100.00
55301;BME280;58302;51.446;-2.000;2023-02-28T00:35:03;102468.00;;;-3.07;100.00
55301;BME280;58302;51.446;-2.000;2023-02-28T00:37:29;102464.88;;;-3.12;100.00
55301;BME280;58302;51.446;-2.000;2023-02-28T00:39:54;102462.31;;;-3.14;100.00
55301;BME280;58302;51.446;-2.000;2023-02-28T00:42:20;102462.09;;;-3.11;100.00
55301;BME280;58302;51.446;-2.000;2023-02-28T00:44:46;102465.22;;;-3.06;100.00
55301;BME280;58302;51.446;-2.000;2023-02-28T00:47:12;102465.22;;;-3.06;100.00
55301;BME280;58302;51.446;-2.000;2023-02-28T00:49:37;102461.81;;;-3.08;100.00
55301;BME280;58302;51.446;-2.000;2023-02-28T00:52:03;102463.16;;;-3.13;100.00
55301;BME280;58302;51.446;-2.000;2023-02-28T00:54:29;102465.00;;;-3.25;100.00
55301;BME280;58302;51.446;-2.000;2023-02-28T00:56:55;102469.53;;;-3.37;100.00
55301;BME280;58302;51.446;-2.000;2023-02-28T00:59:21;102472.69;;;-3.43;100.00
55301;BME280;58302;51.446;-2.000;2023-02-28T01:01:47;102474.25;;;-3.40;100.00
55301;BME280;58302;51.446;-2.000;2023-02-28T01:04:13;102473.03;;;-3.36;100.00
55301;BME280;58302;51.446;-2.000;2023-02-28T01:06:39;102482.56;;;-3.34;100.00
55301;BME280;58302;51.446;-2.000;2023-02-28T01:09:05;102475.09;;;-3.40;100.00
55301;BME280;58302;51.446;-2.000;2023-02-28T01:11:32;102482.69;;;-3.47;100.00
55301;BME280;58302;51.446;-2.000;2023-02-28T01:13:58;102478.34;;;-3.48;100.00
55301;BME280;58302;51.446;-2.000;2023-02-28T01:16:24;102482.47;;;-3.43;100.00
55301;BME280;58302;51.446;-2.000;2023-02-28T01:18:50;102471.84;;;-3.43;100.00
55301;BME280;58302;51.446;-2.000;2023-02-28T01:21:16;102477.38;;;-3.47;100.00
55301;BME280;58302;51.446;-2.000;2023-02-28T01:23:43;102485.34;;;-3.47;100.00
55301;BME280;58302;51.446;-2.000;2023-02-28T01:26:12;102483.66;;;-3.36;100.00
55301;BME280;58302;51.446;-2.000;2023-02-28T01:28:38;102476.28;;;-3.33;100.00
55301;BME280;58302;51.446;-2.000;2023-02-28T01:31:04;102478.56;;;-3.28;100.00
55301;BME280;58302;51.446;-2.000;2023-02-28T01:33:30;102482.69;;;-3.35;100.00
55301;BME280;58302;51.446;-2.000;2023-02-28T01:35:59;102484.16;;;-3.42;100.00
55301;BME280;58302;51.446;-2.000;2023-02-28T01:38:25;102472.94;;;-3.46;100.00
55301;BME280;58302;51.446;-2.000;2023-02-28T01:40:51;102471.69;;;-3.31;100.00
55301;BME280;58302;51.446;-2.000;2023-02-28T01:43:55;102469.34;;;-3.13;100.00
55301;BME280;58302;51.446;-2.000;2023-02-28T01:46:03;102471.78;;;-2.89;100.00
55301;BME280;58302;51.446;-2.000;2023-02-28T01:48:32;102473.88;;;-2.72;100.00
55301;BME280;58302;51.446;-2.000;2023-02-28T01:51:01;102470.75;;;-2.77;100.00
55301;BME280;58302;51.446;-2.000;2023-02-28T01:53:31;102472.41;;;-2.85;100.00
55301;BME280;58302;51.446;-2.000;2023-02-28T01:55:57;102472.41;;;-2.85;100.00
55301;BME280;58302;51.446;-2.000;2023-02-28T01:58:23;102474.88;;;-2.73;100.00
55301;BME280;58302;51.446;-2.000;2023-02-28T02:00:49;102471.53;;;-2.65;100.00
55301;BME280;58302;51.446;-2.000;2023-02-28T02:03:16;102468.88;;;-2.65;100.00
55301;BME280;58302;51.446;-2.000;2023-02-28T02:05:46;102468.09;;;-2.77;100.00
55301;BME280;58302;51.446;-2.000;2023-02-28T02:08:17;102470.09;;;-2.90;100.00
55301;BME280;58302;51.446;-2.000;2023-02-28T02:10:44;102470.25;;;-3.03;100.00
55301;BME280;58302;51.446;-2.000;2023-02-28T02:18:26;102470.38;;;-3.36;100.00
55301;BME280;58302;51.446;-2.000;2023-02-28T02:36:26;102469.28;;;-2.90;100.00
55301;BME280;58302;51.446;-2.000;2023-02-28T02:39:00;102464.88;;;-2.92;100.00
55301;BME280;58302;51.446;-2.000;2023-02-28T02:41:28;102462.22;;;-2.92;100.00
55301;BME280;58302;51.446;-2.000;2023-02-28T02:44:07;102472.91;;;-3.03;100.00
55301;BME280;58302;51.446;-2.000;2023-02-28T02:46:41;102476.38;;;-3.23;100.00
55301;BME280;58302;51.446;-2.000;2023-02-28T02:49:10;102472.69;;;-3.43;100.00
55301;BME280;58302;51.446;-2.000;2023-02-28T02:51:38;102472.34;;;-3.61;100.00
55301;BME280;58302;51.446;-2.000;2023-02-28T02:54:08;102470.06;;;-3.65;100.00
55301;BME280;58302;51.446;-2.000;2023-02-28T02:56:34;102471.16;;;-3.68;100.00
55301;BME280;58302;51.446;-2.000;2023-02-28T02:59:01;102474.28;;;-3.74;100.00
55301;BME280;58302;51.446;-2.000;2023-02-28T03:01:28;102466.09;;;-3.82;100.00
55301;BME280;58302;51.446;-2.000;2023-02-28T03:03:56;102467.75;;;-3.70;100.00
55301;BME280;58302;51.446;-2.000;2023-02-28T03:06:22;102476.56;;;-3.58;100.00
55301;BME280;58302;51.446;-2.000;2023-02-28T03:08:48;102477.53;;;-3.48;100.00
55301;BME280;58302;51.446;-2.000;2023-02-28T03:11:15;102469.66;;;-3.38;100.00
55301;BME280;58302;51.446;-2.000;2023-02-28T03:13:47;102471.81;;;-3.32;100.00
55301;BME280;58302;51.446;-2.000;2023-02-28T03:16:22;102472.00;;;-3.24;100.00
55301;BME280;58302;51.446;-2.000;2023-02-28T03:21:27;102474.91;;;-3.16;100.00
55301;BME280;58302;51.446;-2.000;2023-02-28T03:24:05;102469.34;;;-3.13;100.00
55301;BME280;58302;51.446;-2.000;2023-02-28T03:26:34;102465.44;;;-3.09;100.00
55301;BME280;58302;51.446;-2.000;2023-02-28T03:29:13;102465.53;;;-2.99;100.00
55301;BME280;58302;51.446;-2.000;2023-02-28T03:31:50;102469.69;;;-2.74;100.00
55301;BME280;58302;51.446;-2.000;2023-02-28T03:36:51;102471.09;;;-2.70;100.00
55301;BME280;58302;51.446;-2.000;2023-02-28T03:39:20;102469.41;;;-2.71;100.00
55301;BME280;58302;51.446;-2.000;2023-02-28T03:41:54;102469.69;;;-2.74;100.00
55301;BME280;58302;51.446;-2.000;2023-02-28T03:44:24;102461.81;;;-2.76;100.00
55301;BME280;58302;51.446;-2.000;2023-02-28T03:46:53;102464.59;;;-2.77;100.00
55301;BME280;58302;51.446;-2.000;2023-02-28T03:49:20;102472.72;;;-2.79;100.00
55301;BME280;58302;51.446;-2.000;2023-02-28T03:51:48;102468.38;;;-2.80;100.00
55301;BME280;58302;51.446;-2.000;2023-02-28T03:54:19;102465.44;;;-2.77;100.00
55301;BME280;58302;51.446;-2.000;2023-02-28T04:01:45;102444.09;;;-2.66;100.00
55301;BME280;58302;51.446;-2.000;2023-02-28T04:04:13;102444.09;;;-2.66;100.00
55301;BME280;58302;51.446;-2.000;2023-02-28T04:06:39;102437.75;;;-2.74;100.00
55301;BME280;58302;51.446;-2.000;2023-02-28T04:09:06;102433.44;;;-2.86;100.00
55301;BME280;58302;51.446;-2.000;2023-02-28T04:11:36;102440.06;;;-3.02;100.00
55301;BME280;58302;51.446;-2.000;2023-02-28T04:14:02;102444.94;;;-3.18;100.00
55301;BME280;58302;51.446;-2.000;2023-02-28T04:16:29;102441.94;;;-3.25;100.00
55301;BME280;58302;51.446;-2.000;2023-02-28T04:18:55;102446.06;;;-3.32;100.00
55301;BME280;58302;51.446;-2.000;2023-02-28T04:21:28;102456.59;;;-3.41;100.00
55301;BME280;58302;51.446;-2.000;2023-02-28T04:23:54;102457.94;;;-3.47;100.00
55301;BME280;58302;51.446;-2.000;2023-02-28T04:26:20;102449.38;;;-3.39;100.00
55301;BME280;58302;51.446;-2.000;2023-02-28T04:28:45;102449.47;;;-3.41;100.00
55301;BME280;58302;51.446;-2.000;2023-02-28T04:31:11;102451.41;;;-3.43;100.00
55301;BME280;58302;51.446;-2.000;2023-02-28T04:33:37;102454.44;;;-3.48;100.00
55301;BME280;58302;51.446;-2.000;2023-02-28T04:36:03;102457.47;;;-3.52;100.00
55301;BME280;58302;51.446;-2.000;2023-02-28T04:38:32;102451.94;;;-3.60;100.00
55301;BME280;58302;51.446;-2.000;2023-02-28T04:40:58;102460.53;;;-3.68;100.00
55301;BME280;58302;51.446;-2.000;2023-02-28T04:43:25;102460.06;;;-3.73;100.00
55301;BME280;58302;51.446;-2.000;2023-02-28T04:45:51;102463.53;;;-3.61;100.00
55301;BME280;58302;51.446;-2.000;2023-02-28T04:48:17;102467.41;;;-3.65;100.00
55301;BME280;58302;51.446;-2.000;2023-02-28T04:50:42;102454.97;;;-3.76;100.00
55301;BME280;58302;51.446;-2.000;2023-02-28T04:53:09;102457.41;;;-3.84;100.00
55301;BME280;58302;51.446;-2.000;2023-02-28T04:55:34;102460.06;;;-3.95;100.00
55301;BME280;58302;51.446;-2.000;2023-02-28T04:58:00;102462.94;;;-4.10;100.00
55301;BME280;58302;51.446;-2.000;2023-02-28T05:00:26;102463.16;;;-4.13;100.00
55301;BME280;58302;51.446;-2.000;2023-02-28T05:02:51;102460.78;;;-4.16;100.00
55301;BME280;58302;51.446;-2.000;2023-02-28T05:05:17;102475.13;;;-4.18;100.00
55301;BME280;58302;51.446;-2.000;2023-02-28T05:07:44;102473.31;;;-4.18;100.00
55301;BME280;58302;51.446;-2.000;2023-02-28T05:10:10;102474.19;;;-4.17;100.00
55301;BME280;58302;51.446;-2.000;2023-02-28T05:12:36;102470.19;;;-4.12;100.00
55301;BME280;58302;51.446;-2.000;2023-02-28T05:15:02;102472.25;;;-4.04;100.00
55301;BME280;58302;51.446;-2.000;2023-02-28T05:17:28;102474.28;;;-3.97;100.00
55301;BME280;58302;51.446;-2.000;2023-02-28T05:19:54;102479.25;;;-3.92;100.00
55301;BME280;58302;51.446;-2.000;2023-02-28T05:22:19;102476.47;;;-3.90;100.00
55301;BME280;58302;51.446;-2.000;2023-02-28T05:24:45;102484.69;;;-3.82;100.00
55301;BME280;58302;51.446;-2.000;2023-02-28T05:27:11;102485.03;;;-3.76;100.00
55301;BME280;58302;51.446;-2.000;2023-02-28T05:29:37;102481.66;;;-3.66;100.00
55301;BME280;58302;51.446;-2.000;2023-02-28T05:32:10;102481.38;;;-3.52;100.00
55301;BME280;58302;51.446;-2.000;2023-02-28T05:34:37;102480.88;;;-3.35;100.00
55301;BME280;58302;51.446;-2.000;2023-02-28T05:37:03;102483.06;;;-3.29;100.00
55301;BME280;58302;51.446;-2.000;2023-02-28T05:39:29;102480.31;;;-3.06;100.00
55301;BME280;58302;51.446;-2.000;2023-02-28T05:41:55;102479.13;;;-2.81;100.00
55301;BME280;58302;51.446;-2.000;2023-02-28T05:44:20;102475.56;;;-2.71;100.00
55301;BME280;58302;51.446;-2.000;2023-02-28T05:46:46;102480.06;;;-2.71;100.00
55301;BME280;58302;51.446;-2.000;2023-02-28T05:49:12;102492.81;;;-2.86;100.00
55301;BME280;58302;51.446;-2.000;2023-02-28T05:51:38;102500.34;;;-3.02;100.00
55301;BME280;58302;51.446;-2.000;2023-02-28T05:54:05;102493.28;;;-3.13;100.00
55301;BME280;58302;51.446;-2.000;2023-02-28T05:56:31;102493.38;;;-3.14;100.00
55301;BME280;58302;51.446;-2.000;2023-02-28T05:58:59;102497.84;;;-3.04;100.00
55301;BME280;58302;51.446;-2.000;2023-02-28T06:04:00;102501.00;;;-3.10;100.00
55301;BME280;58302;51.446;-2.000;2023-02-28T06:06:26;102502.22;;;-3.14;100.00
55301;BME280;58302;51.446;-2.000;2023-02-28T06:08:52;102496.66;;;-3.11;100.00
55301;BME280;58302;51.446;-2.000;2023-02-28T06:11:18;102491.28;;;-3.00;100.00
55301;BME280;58302;51.446;-2.000;2023-02-28T06:13:45;102486.06;;;-2.90;100.00
55301;BME280;58302;51.446;-2.000;2023-02-28T06:16:11;102490.13;;;-2.86;100.00
55301;BME280;58302;51.446;-2.000;2023-02-28T06:18:37;102478.03;;;-2.79;100.00
55301;BME280;58302;51.446;-2.000;2023-02-28T06:21:03;102481.34;;;-2.66;100.00
55301;BME280;58302;51.446;-2.000;2023-02-28T06:23:29;102475.25;;;-2.56;100.00
55301;BME280;58302;51.446;-2.000;2023-02-28T06:25:55;102487.47;;;-2.54;100.00
55301;BME280;58302;51.446;-2.000;2023-02-28T06:28:24;102479.16;;;-2.40;100.00
55301;BME280;58302;51.446;-2.000;2023-02-28T06:30:50;102485.03;;;-2.15;100.00
55301;BME280;58302;51.446;-2.000;2023-02-28T06:33:15;102490.88;;;-2.00;100.00
55301;BME280;58302;51.446;-2.000;2023-02-28T06:35:45;102492.16;;;-1.95;100.00
55301;BME280;58302;51.446;-2.000;2023-02-28T06:38:11;102487.03;;;-1.87;100.00
55301;BME280;58302;51.446;-2.000;2023-02-28T06:40:37;102489.31;;;-1.72;100.00
55301;BME280;58302;51.446;-2.000;2023-02-28T06:43:03;102488.22;;;-1.60;100.00
55301;BME280;58302;51.446;-2.000;2023-02-28T06:45:28;102488.66;;;-1.65;100.00
55301;BME280;58302;51.446;-2.000;2023-02-28T06:47:54;102485.41;;;-1.68;100.00
55301;BME280;58302;51.446;-2.000;2023-02-28T06:50:20;102483.97;;;-1.72;100.00
55301;BME280;58302;51.446;-2.000;2023-02-28T06:52:46;102490.53;;;-1.76;100.00
55301;BME280;58302;51.446;-2.000;2023-02-28T06:55:12;102482.44;;;-1.75;100.00
55301;BME280;58302;51.446;-2.000;2023-02-28T06:57:38;102497.06;;;-1.69;100.00
55301;BME280;58302;51.446;-2.000;2023-02-28T07:00:05;102490.34;;;-1.64;100.00
55301;BME280;58302;51.446;-2.000;2023-02-28T07:02:33;102485.00;;;-1.54;100.00
55301;BME280;58302;51.446;-2.000;2023-02-28T07:04:59;102495.75;;;-1.35;100.00
55301;BME280;58302;51.446;-2.000;2023-02-28T07:07:25;102491.97;;;-1.22;100.00
55301;BME280;58302;51.446;-2.000;2023-02-28T07:09:50;102502.94;;;-1.16;100.00
55301;BME280;58302;51.446;-2.000;2023-02-28T07:12:16;102489.34;;;-1.03;100.00
55301;BME280;58302;51.446;-2.000;2023-02-28T07:14:42;102492.03;;;-0.93;100.00
55301;BME280;58302;51.446;-2.000;2023-02-28T07:17:08;102499.34;;;-0.76;100.00
55301;BME280;58302;51.446;-2.000;2023-02-28T07:19:34;102505.22;;;-0.72;100.00
55301;BME280;58302;51.446;-2.000;2023-02-28T07:22:00;102502.28;;;-0.69;100.00
55301;BME280;58302;51.446;-2.000;2023-02-28T07:24:26;102502.97;;;-0.67;100.00
55301;BME280;58302;51.446;-2.000;2023-02-28T07:26:53;102499.88;;;-0.63;100.00
55301;BME280;58302;51.446;-2.000;2023-02-28T07:29:19;102503.13;;;-0.59;100.00
55301;BME280;58302;51.446;-2.000;2023-02-28T07:31:45;102500.72;;;-0.62;100.00
55301;BME280;58302;51.446;-2.000;2023-02-28T07:34:12;102496.66;;;-0.47;100.00
55301;BME280;58302;51.446;-2.000;2023-02-28T07:36:38;102496.06;;;-0.21;100.00
55301;BME280;58302;51.446;-2.000;2023-02-28T07:39:04;102486.56;;;-0.06;100.00
55301;BME280;58302;51.446;-2.000;2023-02-28T07:41:30;102485.97;;;0.10;100.00
55301;BME280;58302;51.446;-2.000;2023-02-28T07:43:59;102483.88;;;0.41;100.00
55301;BME280;58302;51.446;-2.000;2023-02-28T07:46:25;102492.94;;;0.58;100.00
55301;BME280;58302;51.446;-2.000;2023-02-28T07:48:51;102494.84;;;0.65;100.00
55301;BME280;58302;51.446;-2.000;2023-02-28T07:51:18;102501.34;;;1.08;100.00
55301;BME280;58302;51.446;-2.000;2023-02-28T07:53:44;102486.34;;;1.33;100.00
55301;BME280;58302;51.446;-2.000;2023-02-28T07:56:09;102491.22;;;1.55;100.00
55301;BME280;58302;51.446;-2.000;2023-02-28T07:58:36;102500.81;;;1.84;100.00
55301;BME280;58302;51.446;-2.000;2023-02-28T08:01:05;102495.53;;;2.00;100.00
55301;BME280;58302;51.446;-2.000;2023-02-28T08:03:31;102499.00;;;2.19;100.00
55301;BME280;58302;51.446;-2.000;2023-02-28T08:05:57;102505.91;;;2.29;100.00
55301;BME280;58302;51.446;-2.000;2023-02-28T08:08:23;102505.50;;;2.42;100.00
55301;BME280;58302;51.446;-2.000;2023-02-28T08:10:49;102499.84;;;2.53;100.00
55301;BME280;58302;51.446;-2.000;2023-02-28T08:13:14;102505.59;;;2.67;100.00
55301;BME280;58302;51.446;-2.000;2023-02-28T08:15:41;102510.13;;;2.74;100.00
55301;BME280;58302;51.446;-2.000;2023-02-28T08:18:08;102505.63;;;2.83;100.00
55301;BME280;58302;51.446;-2.000;2023-02-28T08:20:34;102509.69;;;2.87;100.00
55301;BME280;58302;51.446;-2.000;2023-02-28T08:22:59;102517.25;;;2.92;100.00
55301;BME280;58302;51.446;-2.000;2023-02-28T08:25:25;102516.75;;;2.96;100.00
55301;BME280;58302;51.446;-2.000;2023-02-28T08:27:51;102515.25;;;3.02;100.00
55301;BME280;58302;51.446;-2.000;2023-02-28T08:30:17;102520.31;;;3.13;100.00
55301;BME280;58302;51.446;-2.000;2023-02-28T08:32:43;102516.31;;;3.25;100.00
55301;BME280;58302;51.446;-2.000;2023-02-28T08:35:09;102512.94;;;3.39;100.00
55301;BME280;58302;51.446;-2.000;2023-02-28T08:37:35;102507.25;;;3.51;100.00
55301;BME280;58302;51.446;-2.000;2023-02-28T08:40:01;102511.13;;;3.64;100.00
55301;BME280;58302;51.446;-2.000;2023-02-28T08:42:27;102508.25;;;3.74;100.00
55301;BME280;58302;51.446;-2.000;2023-02-28T08:44:52;102510.75;;;3.84;100.00
55301;BME280;58302;51.446;-2.000;2023-02-28T08:47:18;102503.19;;;3.87;100.00
55301;BME280;58302;51.446;-2.000;2023-02-28T08:49:44;102507.88;;;3.93;100.00
55301;BME280;58302;51.446;-2.000;2023-02-28T08:52:10;102505.53;;;4.07;100.00
55301;BME280;58302;51.446;-2.000;2023-02-28T08:54:36;102509.88;;;4.08;100.00
55301;BME280;58302;51.446;-2.000;2023-02-28T08:57:02;102503.63;;;4.15;100.00
55301;BME280;58302;51.446;-2.000;2023-02-28T08:59:28;102505.31;;;4.25;100.00
55301;BME280;58302;51.446;-2.000;2023-02-28T09:01:54;102498.06;;;4.25;100.00
55301;BME280;58302;51.446;-2.000;2023-02-28T09:04:20;102506.28;;;4.32;100.00
55301;BME280;58302;51.446;-2.000;2023-02-28T09:06:46;102506.09;;;4.33;100.00
55301;BME280;58302;51.446;-2.000;2023-02-28T09:09:14;102502.75;;;4.31;100.00
55301;BME280;58302;51.446;-2.000;2023-02-28T09:11:40;102500.69;;;4.41;100.00
55301;BME280;58302;51.446;-2.000;2023-02-28T09:14:05;102507.44;;;4.37;100.00
55301;BME280;58302;51.446;-2.000;2023-02-28T09:16:31;102508.28;;;4.38;100.00
55301;BME280;58302;51.446;-2.000;2023-02-28T09:18:57;102507.25;;;4.39;100.00
55301;BME280;58302;51.446;-2.000;2023-02-28T09:21:23;102511.09;;;4.44;100.00
55301;BME280;58302;51.446;-2.000;2023-02-28T09:23:49;102516.44;;;4.61;100.00
55301;BME280;58302;51.446;-2.000;2023-02-28T09:26:17;102512.34;;;4.73;100.00
55301;BME280;58302;51.446;-2.000;2023-02-28T09:28:43;102515.31;;;4.86;100.00
55301;BME280;58302;51.446;-2.000;2023-02-28T09:31:16;102510.56;;;4.88;100.00
55301;BME280;58302;51.446;-2.000;2023-02-28T09:33:46;102515.31;;;4.86;100.00
55301;BME280;58302;51.446;-2.000;2023-02-28T09:36:12;102510.88;;;4.93;100.00
55301;BME280;58302;51.446;-2.000;2023-02-28T09:38:38;102514.19;;;5.03;100.00
55301;BME280;58302;51.446;-2.000;2023-02-28T09:41:09;102519.25;;;5.07;100.00
55301;BME280;58302;51.446;-2.000;2023-02-28T09:43:38;102516.75;;;4.97;100.00
55301;BME280;58302;51.446;-2.000;2023-02-28T09:46:08;102511.69;;;5.02;100.00
55301;BME280;58302;51.446;-2.000;2023-02-28T09:48:38;102516.47;;;5.15;100.00
55301;BME280;58302;51.446;-2.000;2023-02-28T09:51:09;102505.78;;;5.29;100.00
55301;BME280;58302;51.446;-2.000;2023-02-28T09:53:38;102508.22;;;5.39;100.00
55301;BME280;58302;51.446;-2.000;2023-02-28T09:56:09;102511.38;;;5.43;100.00
55301;BME280;58302;51.446;-2.000;2023-02-28T09:58:44;102512.34;;;5.27;100.00
55301;BME280;58302;51.446;-2.000;2023-02-28T10:01:27;102509.84;;;5.25;100.00
55301;BME280;58302;51.446;-2.000;2023-02-28T10:03:56;102509.59;;;5.35;100.00
55301;BME280;58302;51.446;-2.000;2023-02-28T10:06:46;102514.00;;;5.74;100.00
55301;BME280;58302;51.446;-2.000;2023-02-28T10:09:11;102514.19;;;6.40;100.00
55301;BME280;58302;51.446;-2.000;2023-02-28T10:11:38;102512.41;;;6.76;100.00
55301;BME280;58302;51.446;-2.000;2023-02-28T10:17:24;102509.94;;;7.18;100.00
55301;BME280;58302;51.446;-2.000;2023-02-28T10:22:12;102518.72;;;6.69;100.00
55301;BME280;58302;51.446;-2.000;2023-02-28T10:24:40;102509.06;;;6.59;100.00
55301;BME280;58302;51.446;-2.000;2023-02-28T10:27:23;102505.63;;;6.51;100.00
55301;BME280;58302;51.446;-2.000;2023-02-28T10:29:56;102503.19;;;6.56;100.00
55301;BME280;58302;51.446;-2.000;2023-02-28T10:32:40;102506.81;;;6.78;100.00
55301;BME280;58302;51.446;-2.000;2023-02-28T10:37:43;102512.22;;;6.78;100.00
55301;BME280;58302;51.446;-2.000;2023-02-28T10:43:04;102505.28;;;6.75;100.00
55301;BME280;58302;51.446;-2.000;2023-02-28T10:45:31;102507.44;;;6.80;100.00
55301;BME280;58302;51.446;-2.000;2023-02-28T10:50:28;102500.97;;;6.96;100.00
55301;BME280;58302;51.446;-2.000;2023-02-28T10:52:54;102509.75;;;6.98;100.00
55301;BME280;58302;51.446;-2.000;2023-02-28T10:55:21;102496.31;;;7.04;100.00
55301;BME280;58302;51.446;-2.000;2023-02-28T10:57:48;102503.47;;;6.97;100.00
55301;BME280;58302;51.446;-2.000;2023-02-28T11:00:24;102497.34;;;7.03;100.00
55301;BME280;58302;51.446;-2.000;2023-02-28T11:02:53;102503.97;;;6.86;100.00
55301;BME280;58302;51.446;-2.000;2023-02-28T11:05:29;102501.97;;;6.73;100.00
55301;BME280;58302;51.446;-2.000;2023-02-28T11:10:39;102501.59;;;6.62;100.00
55301;BME280;58302;51.446;-2.000;2023-02-28T11:13:16;102501.50;;;6.70;100.00
55301;BME280;58302;51.446;-2.000;2023-02-28T11:15:45;102496.56;;;6.58;100.00
55301;BME280;58302;51.446;-2.000;2023-02-28T11:21:16;102483.41;;;6.70;100.00
55301;BME280;58302;51.446;-2.000;2023-02-28T11:23:42;102487.63;;;6.73;100.00
55301;BME280;58302;51.446;-2.000;2023-02-28T11:26:08;102483.88;;;6.74;100.00
55301;BME280;58302;51.446;-2.000;2023-02-28T11:28:37;102478.19;;;6.69;100.00
55301;BME280;58302;51.446;-2.000;2023-02-28T11:31:09;102474.56;;;6.76;100.00
55301;BME280;58302;51.446;-2.000;2023-02-28T11:33:52;102476.59;;;6.74;100.00
55301;BME280;58302;51.446;-2.000;2023-02-28T11:36:25;102459.16;;;6.55;100.00
55301;BME280;58302;51.446;-2.000;2023-02-28T11:39:11;102473.41;;;6.49;100.00
55301;BME280;58302;51.446;-2.000;2023-02-28T11:41:49;102470.16;;;6.54;100.00
55301;BME280;58302;51.446;-2.000;2023-02-28T11:47:11;102467.97;;;7.00;100.00
55301;BME280;58302;51.446;-2.000;2023-02-28T11:57:35;102459.41;;;7.18;100.00
55301;BME280;58302;51.446;-2.000;2023-02-28T12:05:10;102463.59;;;7.21;100.00
55301;BME280;58302;51.446;-2.000;2023-02-28T12:12:57;102454.06;;;7.25;100.00
55301;BME280;58302;51.446;-2.000;2023-02-28T12:18:36;102448.22;;;7.21;100.00
55301;BME280;58302;51.446;-2.000;2023-02-28T12:25:51;102444.16;;;7.32;100.00
55301;BME280;58302;51.446;-2.000;2023-02-28T12:28:23;102439.94;;;7.29;100.00
55301;BME280;58302;51.446;-2.000;2023-02-28T12:31:14;102439.13;;;7.29;100.00
55301;BME280;58302;51.446;-2.000;2023-02-28T12:33:42;102435.22;;;7.31;100.00
55301;BME280;58302;51.446;-2.000;2023-02-28T12:36:10;102430.81;;;7.30;100.00
55301;BME280;58302;51.446;-2.000;2023-02-28T12:38:39;102422.03;;;7.50;100.00
55301;BME280;58302;51.446;-2.000;2023-02-28T12:41:10;102419.72;;;7.75;100.00
55301;BME280;58302;51.446;-2.000;2023-02-28T12:43:45;102411.50;;;7.96;100.00
55301;BME280;58302;51.446;-2.000;2023-02-28T12:46:13;102412.66;;;8.15;100.00
55301;BME280;58302;51.446;-2.000;2023-02-28T12:48:42;102411.59;;;7.75;100.00
55301;BME280;58302;51.446;-2.000;2023-02-28T12:51:08;102414.38;;;7.53;100.00
55301;BME280;58302;51.446;-2.000;2023-02-28T12:58:51;102395.44;;;7.88;100.00
55301;BME280;58302;51.446;-2.000;2023-02-28T13:03:59;102398.47;;;8.13;100.00
55301;BME280;58302;51.446;-2.000;2023-02-28T13:06:34;102393.03;;;8.06;100.00
55301;BME280;58302;51.446;-2.000;2023-02-28T13:09:13;102380.88;;;7.96;100.00
55301;BME280;58302;51.446;-2.000;2023-02-28T13:11:45;102383.66;;;7.68;100.00
55301;BME280;58302;51.446;-2.000;2023-02-28T13:14:30;102382.34;;;7.63;100.00
55301;BME280;58302;51.446;-2.000;2023-02-28T13:19:26;102372.50;;;7.84;100.00
55301;BME280;58302;51.446;-2.000;2023-02-28T13:21:52;102360.88;;;7.90;100.00
55301;BME280;58302;51.446;-2.000;2023-02-28T13:29:28;102357.59;;;8.01;100.00
55301;BME280;58302;51.446;-2.000;2023-02-28T13:42:51;102334.09;;;8.76;100.00
55301;BME280;58302;51.446;-2.000;2023-02-28T14:05:46;102308.44;;;8.98;100.00
55301;BME280;58302;51.446;-2.000;2023-02-28T14:08:13;102309.47;;;9.04;100.00
55301;BME280;58302;51.446;-2.000;2023-02-28T14:10:46;102310.75;;;8.82;100.00
55301;BME280;58302;51.446;-2.000;2023-02-28T14:15:44;102302.84;;;8.06;100.00
55301;BME280;58302;51.446;-2.000;2023-02-28T14:18:33;102291.16;;;8.05;100.00
55301;BME280;58302;51.446;-2.000;2023-02-28T14:26:19;102281.31;;;8.79;100.00
55301;BME280;58302;51.446;-2.000;2023-02-28T14:31:29;102256.88;;;9.25;100.00
55301;BME280;58302;51.446;-2.000;2023-02-28T14:36:44;102261.09;;;9.01;100.00
55301;BME280;58302;51.446;-2.000;2023-02-28T14:39:14;102250.47;;;8.86;100.00
55301;BME280;58302;51.446;-2.000;2023-02-28T14:41:41;102254.84;;;9.07;100.00
55301;BME280;58302;51.446;-2.000;2023-02-28T14:46:39;102245.28;;;9.63;100.00
55301;BME280;58302;51.446;-2.000;2023-02-28T14:49:06;102240.81;;;9.30;100.00
55301;BME280;58302;51.446;-2.000;2023-02-28T14:51:33;102239.81;;;8.98;100.00
55301;BME280;58302;51.446;-2.000;2023-02-28T14:53:59;102237.13;;;8.85;100.00
55301;BME280;58302;51.446;-2.000;2023-02-28T14:56:44;102230.50;;;9.52;100.00
55301;BME280;58302;51.446;-2.000;2023-02-28T14:59:25;102235.59;;;9.29;100.00
55301;BME280;58302;51.446;-2.000;2023-02-28T15:01:51;102226.91;;;8.80;100.00
55301;BME280;58302;51.446;-2.000;2023-02-28T15:04:22;102234.38;;;8.32;100.00